createdAt,value
2022-11-05T00:00:15.106Z,5.60
2022-11-05T00:03:00.540Z,5.70
2022-11-05T00:05:46.241Z,5.70
2022-11-05T00:08:31.601Z,5.70
2022-11-05T00:10:58.544Z,5.70
2022-11-05T00:13:43.970Z,5.70
2022-11-05T00:16:39.881Z,5.60
2022-11-05T00:19:06.855Z,5.70
2022-11-05T00:21:54.051Z,5.60
2022-11-05T00:24:39.882Z,5.70
2022-11-05T00:27:06.945Z,5.60
2022-11-05T00:29:34.136Z,5.60
2022-11-05T00:32:01.340Z,5.60
2022-11-05T00:34:28.315Z,5.60
2022-11-05T00:36:55.720Z,5.60
2022-11-05T00:39:22.530Z,5.60
2022-11-05T00:42:09.272Z,5.60
2022-11-05T00:44:54.581Z,5.60
2022-11-05T00:47:39.782Z,5.60
2022-11-05T00:50:06.902Z,5.60
2022-11-05T00:52:52.477Z,5.60
2022-11-05T00:55:19.306Z,5.60
2022-11-05T00:57:46.119Z,5.60
2022-11-05T01:00:13.816Z,5.60
2022-11-05T01:02:40.711Z,5.70
2022-11-05T01:05:07.932Z,5.70
2022-11-05T01:07:34.750Z,5.80
2022-11-05T01:10:01.679Z,5.80
2022-11-05T01:12:28.920Z,5.90
2022-11-05T01:14:55.795Z,5.90
2022-11-05T01:17:22.553Z,6.00
2022-11-05T01:19:49.424Z,6.00
2022-11-05T01:22:16.235Z,6.10
2022-11-05T01:24:43.026Z,6.10
2022-11-05T01:27:09.832Z,6.00
2022-11-05T01:29:36.666Z,6.00
2022-11-05T01:32:03.629Z,6.00
2022-11-05T01:34:30.500Z,6.00
2022-11-05T01:36:57.282Z,5.90
2022-11-05T01:39:24.109Z,5.90
2022-11-05T01:41:50.975Z,5.80
2022-11-05T01:44:54.492Z,5.80
2022-11-05T01:47:32.331Z,5.80
2022-11-05T01:50:03.143Z,5.80
2022-11-05T01:52:33.894Z,5.80
2022-11-05T01:55:01.965Z,5.70
2022-11-05T01:57:29.556Z,5.70
2022-11-05T01:59:59.920Z,5.70
2022-11-05T02:02:27.473Z,5.70
2022-11-05T02:05:00.104Z,5.70
2022-11-05T02:07:29.286Z,5.70
2022-11-05T02:10:11.065Z,5.60
2022-11-05T02:12:39.390Z,5.60
2022-11-05T02:15:07.111Z,5.60
2022-11-05T02:17:38.728Z,5.50
2022-11-05T02:20:22.159Z,5.50
2022-11-05T02:22:52.020Z,5.40
2022-11-05T02:25:30.828Z,5.40
2022-11-05T02:28:28.456Z,5.40
2022-11-05T02:31:38.585Z,5.40
2022-11-05T02:34:42.701Z,5.40
2022-11-05T02:37:38.322Z,5.40
2022-11-05T02:40:08.649Z,5.30
2022-11-05T02:42:44.544Z,5.30
2022-11-05T02:45:19.785Z,5.30
2022-11-05T02:47:59.059Z,5.30
2022-11-05T02:50:54.826Z,5.30
2022-11-05T02:53:40.117Z,5.30
2022-11-05T02:56:25.552Z,5.40
2022-11-05T02:58:52.624Z,5.40
2022-11-05T03:01:19.554Z,5.40
2022-11-05T03:03:51.413Z,5.40
2022-11-05T03:06:55.371Z,5.40
2022-11-05T03:09:40.673Z,5.50
2022-11-05T03:12:21.614Z,5.50
2022-11-05T03:14:58.397Z,5.50
2022-11-05T03:17:27.898Z,5.50
2022-11-05T03:20:07.442Z,5.50
2022-11-05T03:23:05.677Z,5.50
2022-11-05T03:25:37.064Z,5.50
2022-11-05T03:28:07.615Z,5.50
2022-11-05T03:30:36.685Z,5.50
2022-11-05T03:33:13.039Z,5.50
2022-11-05T03:35:45.130Z,5.50
2022-11-05T03:38:16.848Z,5.50
2022-11-05T03:40:47.618Z,5.50
2022-11-05T03:43:16.362Z,5.50
2022-11-05T03:45:54.145Z,5.50
2022-11-05T03:48:25.783Z,5.40
2022-11-05T03:51:41.118Z,5.40
2022-11-05T03:54:08.305Z,5.40
2022-11-05T03:56:49.703Z,5.40
2022-11-05T03:59:18.037Z,5.40
2022-11-05T04:01:45.046Z,5.40
2022-11-05T04:04:11.870Z,5.40
2022-11-05T04:06:57.147Z,5.40
2022-11-05T04:09:42.484Z,5.40
2022-11-05T04:12:29.789Z,5.40
2022-11-05T04:14:56.617Z,5.40
2022-11-05T04:17:23.590Z,5.40
2022-11-05T04:20:08.906Z,5.30
2022-11-05T04:22:55.002Z,5.30
2022-11-05T04:25:22.832Z,5.40
2022-11-05T04:27:49.734Z,5.40
2022-11-05T04:30:18.405Z,5.40
2022-11-05T04:33:06.235Z,5.40
2022-11-05T04:35:41.559Z,5.50
2022-11-05T04:38:19.519Z,5.50
2022-11-05T04:40:47.691Z,5.50
2022-11-05T04:43:16.930Z,5.50
2022-11-05T04:45:44.561Z,5.40
2022-11-05T04:48:12.253Z,5.40
2022-11-05T04:50:39.477Z,5.50
2022-11-05T04:53:06.315Z,5.40
2022-11-05T04:55:33.097Z,5.40
2022-11-05T04:57:59.872Z,5.40
2022-11-05T05:00:26.981Z,5.50
2022-11-05T05:02:53.869Z,5.50
2022-11-05T05:05:22.565Z,5.50
2022-11-05T05:07:49.342Z,5.50
2022-11-05T05:10:16.187Z,5.40
2022-11-05T05:12:43.013Z,5.50
2022-11-05T05:15:09.867Z,5.50
2022-11-05T05:17:36.776Z,5.40
2022-11-05T05:20:22.260Z,5.40
2022-11-05T05:22:53.536Z,5.40
2022-11-05T05:25:20.537Z,5.40
2022-11-05T05:27:47.315Z,5.40
2022-11-05T05:30:14.231Z,5.40
2022-11-05T05:32:40.972Z,5.40
2022-11-05T05:35:08.211Z,5.40
2022-11-05T05:37:34.995Z,5.40
2022-11-05T05:40:01.859Z,5.40
2022-11-05T05:42:28.590Z,5.40
2022-11-05T05:44:55.416Z,5.40
2022-11-05T05:47:22.281Z,5.40
2022-11-05T05:49:49.044Z,5.40
2022-11-05T05:52:15.949Z,5.40
2022-11-05T05:54:43.234Z,5.40
2022-11-05T05:57:10.521Z,5.40
2022-11-05T05:59:37.382Z,5.30
2022-11-05T06:02:04.303Z,5.30
2022-11-05T06:04:31.165Z,5.30
2022-11-05T06:06:57.951Z,5.40
2022-11-05T06:09:24.846Z,5.40
2022-11-05T06:11:51.600Z,5.40
2022-11-05T06:14:18.533Z,5.40
2022-11-05T06:16:45.300Z,5.30
2022-11-05T06:19:12.065Z,5.30
2022-11-05T06:21:38.832Z,5.30
2022-11-05T06:24:05.886Z,5.30
2022-11-05T06:26:32.705Z,5.30
2022-11-05T06:28:59.494Z,5.30
2022-11-05T06:31:26.248Z,5.30
2022-11-05T06:33:53.053Z,5.30
2022-11-05T06:36:20.436Z,5.30
2022-11-05T06:38:47.320Z,5.30
2022-11-05T06:41:14.560Z,5.30
2022-11-05T06:43:41.790Z,5.20
2022-11-05T06:46:10.234Z,5.30
2022-11-05T06:48:37.353Z,5.20
2022-11-05T06:51:04.451Z,5.20
2022-11-05T06:53:31.854Z,5.20
2022-11-05T06:56:02.853Z,5.20
2022-11-05T06:58:30.982Z,5.20
2022-11-05T07:01:08.619Z,5.20
2022-11-05T07:03:38.970Z,5.20
2022-11-05T07:06:07.462Z,5.20
2022-11-05T07:08:35.687Z,5.10
2022-11-05T07:11:02.554Z,5.20
2022-11-05T07:13:29.661Z,5.10
2022-11-05T07:15:56.611Z,5.10
2022-11-05T07:18:23.674Z,5.10
2022-11-05T07:20:50.532Z,5.10
2022-11-05T07:23:17.378Z,5.10
2022-11-05T07:25:44.196Z,5.10
2022-11-05T07:28:11.805Z,5.10
2022-11-05T07:30:38.764Z,5.10
2022-11-05T07:33:05.764Z,5.10
2022-11-05T07:35:32.603Z,5.10
2022-11-05T07:37:59.405Z,5.00
2022-11-05T07:40:28.230Z,5.10
2022-11-05T07:43:00.327Z,5.10
2022-11-05T07:45:29.182Z,5.10
2022-11-05T07:48:01.518Z,5.10
2022-11-05T07:50:31.176Z,5.20
2022-11-05T07:53:11.877Z,5.20
2022-11-05T07:55:41.532Z,5.30
2022-11-05T07:58:09.195Z,5.40
2022-11-05T08:00:36.404Z,5.40
2022-11-05T08:03:13.516Z,5.60
2022-11-05T08:05:44.613Z,5.60
2022-11-05T08:08:13.633Z,5.70
2022-11-05T08:10:41.331Z,5.80
2022-11-05T08:13:09.188Z,6.00
2022-11-05T08:15:36.321Z,6.00
2022-11-05T08:18:09.005Z,6.10
2022-11-05T08:20:36.902Z,6.20
2022-11-05T08:23:03.984Z,6.20
2022-11-05T08:25:31.193Z,6.20
2022-11-05T08:28:00.504Z,6.20
2022-11-05T08:30:28.218Z,6.20
2022-11-05T08:33:03.246Z,6.30
2022-11-05T08:35:30.055Z,6.40
2022-11-05T08:37:59.045Z,6.50
2022-11-05T08:40:26.570Z,6.60
2022-11-05T08:42:56.171Z,6.60
2022-11-05T08:45:23.155Z,6.70
2022-11-05T08:47:50.038Z,6.80
2022-11-05T08:50:17.322Z,6.90
2022-11-05T08:52:44.085Z,7.10
2022-11-05T08:55:10.917Z,7.10
2022-11-05T08:57:37.698Z,7.20
2022-11-05T09:00:07.349Z,7.20
2022-11-05T09:02:34.179Z,7.30
2022-11-05T09:05:01.009Z,7.30
2022-11-05T09:07:27.810Z,7.40
2022-11-05T09:09:54.763Z,7.50
2022-11-05T09:12:21.561Z,7.50
2022-11-05T09:14:48.559Z,7.50
2022-11-05T09:17:20.711Z,7.60
2022-11-05T09:19:49.008Z,7.60
2022-11-05T09:22:15.874Z,7.70
2022-11-05T09:24:43.574Z,7.80
2022-11-05T09:27:11.916Z,7.80
2022-11-05T09:29:39.471Z,7.90
2022-11-05T09:32:06.806Z,8.00
2022-11-05T09:34:33.893Z,8.00
2022-11-05T09:37:00.771Z,8.10
2022-11-05T09:39:27.610Z,8.10
2022-11-05T09:42:00.173Z,8.20
2022-11-05T09:44:50.634Z,8.30
2022-11-05T09:47:52.233Z,8.30
2022-11-05T09:50:33.659Z,8.40
2022-11-05T09:53:01.424Z,8.60
2022-11-05T09:55:33.411Z,8.80
2022-11-05T09:58:03.827Z,8.90
2022-11-05T10:00:32.404Z,9.10
2022-11-05T10:03:06.254Z,9.30
2022-11-05T10:05:34.447Z,9.30
2022-11-05T10:08:29.387Z,9.40
2022-11-05T10:11:03.672Z,9.40
2022-11-05T10:13:53.309Z,9.40
2022-11-05T10:16:26.187Z,9.30
2022-11-05T10:18:59.180Z,9.40
2022-11-05T10:21:51.277Z,9.30
2022-11-05T10:24:18.585Z,9.30
2022-11-05T10:26:52.537Z,9.40
2022-11-05T10:29:29.596Z,9.40
2022-11-05T10:32:03.246Z,9.40
2022-11-05T10:34:34.279Z,9.50
2022-11-05T10:37:01.490Z,9.50
2022-11-05T10:39:30.908Z,9.60
2022-11-05T10:42:28.061Z,9.60
2022-11-05T10:45:16.187Z,9.70
2022-11-05T10:48:01.408Z,9.80
2022-11-05T10:50:30.023Z,9.90
2022-11-05T10:53:05.328Z,10.10
2022-11-05T10:55:33.280Z,10.20
2022-11-05T10:58:20.070Z,10.50
2022-11-05T11:01:03.394Z,10.70
2022-11-05T11:03:46.685Z,10.80
2022-11-05T11:06:23.040Z,10.90
2022-11-05T11:08:51.364Z,10.90
2022-11-05T11:11:40.573Z,10.90
2022-11-05T11:14:22.110Z,11.00
2022-11-05T11:16:51.541Z,11.00
2022-11-05T11:19:21.808Z,11.10
2022-11-05T11:22:12.727Z,11.20
2022-11-05T11:24:47.865Z,11.20
2022-11-05T11:27:24.711Z,11.40
2022-11-05T11:29:57.776Z,11.50
2022-11-05T11:32:28.536Z,11.70
2022-11-05T11:34:58.119Z,11.90
2022-11-05T11:37:35.494Z,12.00
2022-11-05T11:40:24.082Z,12.10
2022-11-05T11:42:55.642Z,12.20
2022-11-05T11:45:31.420Z,12.30
2022-11-05T11:48:01.150Z,12.30
2022-11-05T11:50:41.576Z,12.30
2022-11-05T11:53:37.852Z,12.30
2022-11-05T11:56:09.429Z,12.30
2022-11-05T11:58:47.030Z,12.30
2022-11-05T12:01:32.091Z,12.30
2022-11-05T12:04:16.888Z,12.30
2022-11-05T12:06:56.165Z,12.40
2022-11-05T12:09:41.434Z,12.30
2022-11-05T12:12:14.217Z,12.20
2022-11-05T12:14:55.209Z,12.10
2022-11-05T12:17:24.710Z,12.00
2022-11-05T12:20:20.839Z,11.90
2022-11-05T12:23:09.174Z,11.90
2022-11-05T12:26:13.418Z,11.90
2022-11-05T12:29:22.816Z,12.00
2022-11-05T12:32:10.787Z,11.90
2022-11-05T12:35:15.367Z,11.80
2022-11-05T12:38:19.370Z,11.70
2022-11-05T12:41:08.274Z,11.50
2022-11-05T12:44:09.098Z,11.30
2022-11-05T12:46:50.378Z,11.00
2022-11-05T12:49:45.093Z,10.80
2022-11-05T12:52:53.266Z,10.60
2022-11-05T12:55:26.387Z,10.60
2022-11-05T12:57:57.493Z,10.60
2022-11-05T13:00:26.467Z,10.60
2022-11-05T13:03:21.311Z,10.70
2022-11-05T13:06:05.893Z,10.80
2022-11-05T13:08:36.185Z,10.90
2022-11-05T13:11:34.748Z,10.90
2022-11-05T13:14:27.620Z,11.00
2022-11-05T13:17:02.299Z,11.10
2022-11-05T13:19:49.270Z,11.10
2022-11-05T13:22:45.059Z,11.20
2022-11-05T13:25:33.076Z,11.30
2022-11-05T13:28:19.115Z,11.30
2022-11-05T13:31:01.126Z,11.30
2022-11-05T13:33:40.010Z,11.30
2022-11-05T13:36:36.250Z,11.40
2022-11-05T13:39:10.802Z,11.30
2022-11-05T13:42:02.416Z,11.30
2022-11-05T13:44:35.309Z,11.30
2022-11-05T13:47:23.582Z,11.30
2022-11-05T13:50:09.041Z,11.40
2022-11-05T13:52:54.729Z,11.40
2022-11-05T13:55:57.642Z,11.40
2022-11-05T13:58:49.432Z,11.40
2022-11-05T14:01:47.181Z,11.30
2022-11-05T14:04:36.147Z,11.30
2022-11-05T14:07:21.977Z,11.30
2022-11-05T14:10:36.273Z,11.20
2022-11-05T14:13:19.990Z,11.20
2022-11-05T14:16:00.616Z,11.10
2022-11-05T14:18:55.837Z,11.10
2022-11-05T14:21:33.145Z,11.00
2022-11-05T14:24:22.418Z,11.10
2022-11-05T14:27:01.373Z,11.00
2022-11-05T14:29:49.734Z,10.90
2022-11-05T14:32:25.275Z,10.90
2022-11-05T14:35:04.823Z,10.90
2022-11-05T14:37:50.439Z,10.90
2022-11-05T14:40:36.905Z,10.80
2022-11-05T14:43:25.707Z,10.80
2022-11-05T14:46:08.367Z,10.80
2022-11-05T14:49:05.197Z,10.80
2022-11-05T14:51:39.782Z,10.70
2022-11-05T14:54:29.416Z,10.60
2022-11-05T14:56:59.375Z,10.50
2022-11-05T14:59:28.900Z,10.50
2022-11-05T15:02:01.918Z,10.50
2022-11-05T15:04:36.202Z,10.40
2022-11-05T15:07:03.226Z,10.30
2022-11-05T15:09:40.200Z,10.30
2022-11-05T15:12:36.123Z,10.20
2022-11-05T15:15:28.394Z,10.20
2022-11-05T15:18:03.821Z,10.10
2022-11-05T15:20:49.356Z,10.10
2022-11-05T15:23:20.550Z,10.10
2022-11-05T15:25:53.772Z,10.00
2022-11-05T15:28:27.735Z,10.00
2022-11-05T15:31:19.183Z,10.00
2022-11-05T15:33:47.791Z,9.90
2022-11-05T15:36:22.218Z,9.90
2022-11-05T15:39:08.524Z,9.90
2022-11-05T15:41:38.836Z,9.90
2022-11-05T15:44:05.662Z,9.90
2022-11-05T15:46:32.461Z,9.80
2022-11-05T15:49:05.148Z,9.80
2022-11-05T15:51:32.023Z,9.80
2022-11-05T15:56:55.169Z,9.70
2022-11-05T15:59:24.131Z,9.60
2022-11-05T16:01:51.025Z,9.50
2022-11-05T16:04:19.769Z,9.50
2022-11-05T16:06:50.543Z,9.40
2022-11-05T16:09:24.831Z,9.40
2022-11-05T16:12:31.366Z,9.30
2022-11-05T16:14:59.443Z,9.30
2022-11-05T16:17:29.998Z,9.30
2022-11-05T16:19:57.028Z,9.30
2022-11-05T16:22:24.309Z,9.20
2022-11-05T16:24:51.679Z,9.20
2022-11-05T16:27:22.410Z,9.20
2022-11-05T16:29:54.596Z,9.20
2022-11-05T16:32:30.999Z,9.10
2022-11-05T16:35:04.501Z,9.10
2022-11-05T16:37:41.029Z,9.10
2022-11-05T16:40:26.180Z,9.10
2022-11-05T16:42:54.141Z,9.10
2022-11-05T16:45:24.668Z,9.00
2022-11-05T16:47:51.957Z,9.00
2022-11-05T16:50:25.314Z,9.00
2022-11-05T16:52:52.688Z,9.00
2022-11-05T16:55:20.398Z,9.00
2022-11-05T16:57:52.206Z,9.00
2022-11-05T17:00:21.190Z,9.00
2022-11-05T17:02:48.942Z,9.00
2022-11-05T17:05:22.730Z,9.00
2022-11-05T17:07:49.852Z,9.00
2022-11-05T17:10:17.450Z,9.00
2022-11-05T17:12:45.198Z,8.90
2022-11-05T17:15:29.559Z,8.90
2022-11-05T17:17:57.327Z,8.90
2022-11-05T17:20:27.379Z,9.00
2022-11-05T17:22:55.465Z,9.00
2022-11-05T17:25:22.877Z,8.90
2022-11-05T17:27:49.992Z,9.00
2022-11-05T17:30:17.325Z,9.00
2022-11-05T17:32:44.240Z,9.00
2022-11-05T17:35:11.675Z,9.00
2022-11-05T17:37:38.660Z,9.00
2022-11-05T17:40:07.702Z,9.00
2022-11-05T17:42:34.505Z,9.00
2022-11-05T17:45:01.956Z,9.00
2022-11-05T17:47:28.771Z,9.10
2022-11-05T17:49:55.703Z,9.00
2022-11-05T17:52:22.627Z,9.10
2022-11-05T17:54:49.721Z,9.10
2022-11-05T17:57:16.735Z,9.10
2022-11-05T17:59:43.587Z,9.00
2022-11-05T18:02:11.858Z,9.00
2022-11-05T18:04:39.521Z,9.10
2022-11-05T18:07:07.034Z,9.10
2022-11-05T18:09:34.045Z,9.10
2022-11-05T18:12:00.890Z,9.10
2022-11-05T18:14:27.714Z,9.10
2022-11-05T18:17:00.208Z,9.20
2022-11-05T18:19:28.272Z,9.20
2022-11-05T18:21:55.833Z,9.20
2022-11-05T18:24:22.971Z,9.20
2022-11-05T18:26:50.076Z,9.20
2022-11-05T18:29:16.985Z,9.30
2022-11-05T18:31:43.765Z,9.30
2022-11-05T18:34:10.610Z,9.30
2022-11-05T18:36:38.063Z,9.40
2022-11-05T18:39:06.707Z,9.40
2022-11-05T18:41:33.543Z,9.40
2022-11-05T18:44:02.060Z,9.40
2022-11-05T18:46:56.458Z,9.40
2022-11-05T18:49:17.279Z,9.50
2022-11-05T18:51:44.083Z,9.50
2022-11-05T18:54:11.165Z,9.60
2022-11-05T18:56:44.687Z,9.60
2022-11-05T19:02:04.601Z,9.60
2022-11-05T19:04:31.682Z,9.60
2022-11-05T19:07:04.168Z,9.60
2022-11-05T19:09:32.346Z,9.60
2022-11-05T19:11:59.131Z,9.60
2022-11-05T19:14:26.046Z,9.60
2022-11-05T19:16:52.839Z,9.50
2022-11-05T19:19:19.634Z,9.50
2022-11-05T19:21:46.448Z,9.60
2022-11-05T19:24:20.360Z,9.50
2022-11-05T19:26:48.050Z,9.50
2022-11-05T19:29:14.918Z,9.60
2022-11-05T19:31:41.978Z,9.60
2022-11-05T19:34:09.162Z,9.60
2022-11-05T19:36:35.967Z,9.60
2022-11-05T19:39:06.520Z,9.60
2022-11-05T19:41:33.388Z,9.60
2022-11-05T19:44:01.725Z,9.60
2022-11-05T19:46:29.699Z,9.50
2022-11-05T19:48:57.044Z,9.60
2022-11-05T19:51:26.719Z,9.60
2022-11-05T19:53:55.260Z,9.60
2022-11-05T19:56:25.017Z,9.60
2022-11-05T19:58:53.110Z,9.60
2022-11-05T20:01:21.491Z,9.60
2022-11-05T20:03:48.697Z,9.70
2022-11-05T20:06:21.604Z,9.60
2022-11-05T20:09:15.190Z,9.70
2022-11-05T20:11:40.023Z,9.70
2022-11-05T20:14:08.056Z,9.70
2022-11-05T20:16:40.193Z,9.60
2022-11-05T20:19:10.696Z,9.60
2022-11-05T20:21:38.040Z,9.70
2022-11-05T20:24:05.439Z,9.60
2022-11-05T20:26:32.429Z,9.60
2022-11-05T20:28:59.447Z,9.60
2022-11-05T20:31:26.300Z,9.60
2022-11-05T20:33:53.683Z,9.70
2022-11-05T20:36:22.906Z,9.70
2022-11-05T20:38:51.565Z,9.60
2022-11-05T20:41:18.938Z,9.70
2022-11-05T20:43:46.833Z,9.70
2022-11-05T20:46:16.556Z,9.70
2022-11-05T20:48:44.315Z,9.70
2022-11-05T20:51:13.951Z,9.70
2022-11-05T20:53:41.503Z,9.70
2022-11-05T20:56:09.466Z,9.70
2022-11-05T20:58:37.747Z,9.70
2022-11-05T21:01:05.533Z,9.80
2022-11-05T21:03:32.617Z,9.80
2022-11-05T21:06:04.046Z,9.80
2022-11-05T21:08:31.846Z,9.80
2022-11-05T21:10:59.165Z,9.80
2022-11-05T21:13:26.521Z,9.80
2022-11-05T21:15:56.074Z,9.80
2022-11-05T21:18:26.561Z,9.80
2022-11-05T21:20:54.239Z,9.80
2022-11-05T21:23:21.512Z,9.80
2022-11-05T21:25:48.609Z,9.80
2022-11-05T21:28:16.386Z,9.80
2022-11-05T21:30:45.764Z,9.80
2022-11-05T21:33:14.158Z,9.80
2022-11-05T21:35:43.988Z,9.80
2022-11-05T21:38:12.395Z,9.80
2022-11-05T21:40:43.094Z,9.80
2022-11-05T21:43:10.040Z,9.90
2022-11-05T21:45:39.746Z,9.90
2022-11-05T21:48:07.383Z,9.90
2022-11-05T21:50:53.074Z,9.90
2022-11-05T21:53:38.939Z,9.90
2022-11-05T21:56:37.023Z,9.90
2022-11-05T21:59:23.511Z,9.90
2022-11-05T22:01:50.717Z,9.90
2022-11-05T22:04:17.744Z,9.90
2022-11-05T22:06:44.535Z,10.00
2022-11-05T22:09:11.510Z,9.90
2022-11-05T22:11:38.430Z,9.70
2022-11-05T22:14:05.315Z,9.60
2022-11-05T22:16:32.132Z,9.50
2022-11-05T22:18:59.326Z,9.50
2022-11-05T22:21:26.142Z,9.40
2022-11-05T22:23:53.695Z,9.30
2022-11-05T22:26:20.579Z,9.30
2022-11-05T22:28:47.606Z,9.30
2022-11-05T22:31:15.729Z,9.30
2022-11-05T22:33:43.077Z,9.30
2022-11-05T22:36:10.592Z,9.30
2022-11-05T22:38:37.834Z,9.30
2022-11-05T22:41:09.424Z,9.40
2022-11-05T22:43:36.393Z,9.40
2022-11-05T22:46:08.257Z,9.40
2022-11-05T22:48:36.411Z,9.40
2022-11-05T22:51:04.901Z,9.40
2022-11-05T22:53:32.227Z,9.40
2022-11-05T22:55:59.080Z,9.40
2022-11-05T22:58:26.001Z,9.40
2022-11-05T23:00:52.879Z,9.40
2022-11-05T23:03:19.897Z,9.40
2022-11-05T23:05:46.679Z,9.40
2022-11-05T23:08:31.945Z,9.40
2022-11-05T23:11:17.230Z,9.40
2022-11-05T23:13:44.175Z,9.40
2022-11-05T23:16:29.618Z,9.40
2022-11-05T23:19:14.984Z,9.40
2022-11-05T23:22:00.108Z,9.40
2022-11-05T23:24:27.027Z,9.40
2022-11-05T23:26:54.027Z,9.40
2022-11-05T23:29:27.703Z,9.40
2022-11-05T23:32:12.894Z,9.40
2022-11-05T23:34:40.074Z,9.40
2022-11-05T23:37:25.553Z,9.50
2022-11-05T23:39:52.385Z,9.50
2022-11-05T23:42:37.664Z,9.50
2022-11-05T23:45:24.467Z,9.50
2022-11-05T23:48:10.656Z,9.50
2022-11-05T23:50:40.025Z,9.50
2022-11-05T23:53:08.638Z,9.50
2022-11-05T23:55:35.709Z,9.50
2022-11-05T23:58:02.583Z,9.50
